Weather reports worldwide

Advertisment
Le Puy, France (7471): temperature & dewpoint: 18.06.2018 11:00:00 - 24.06.2018 11:00:00 (CEST)Le Puy, France (7471): temperature 5cm: 18.06.2018 11:00:00 - 24.06.2018 11:00:00 (CEST)Le Puy, France (7471): temperature -20cm & temperature -100cm: 18.06.2018 11:00:00 - 24.06.2018 11:00:00 (CEST)Le Puy, France (7471): wind speed & gusts: 18.06.2018 11:00:00 - 24.06.2018 11:00:00 (CEST)Le Puy, France (7471): wind direction: 18.06.2018 11:00:00 - 24.06.2018 11:00:00 (CEST)Le Puy, France (7471): visibility: 18.06.2018 11:00:00 - 24.06.2018 11:00:00 (CEST)Le Puy, France (7471): sunshine duration: 18.06.2018 11:00:00 - 24.06.2018 11:00:00 (CEST)Le Puy, France (7471): precipitation: 18.06.2018 11:00:00 - 24.06.2018 11:00:00 (CEST)
Date & Time tt [°C] td [°C] tt 5cm [°C] tt -20cm [°C] tt -100cm [°C] ff [km/h] ff [kn] fx [km/h] fx [kn] dd vv [km] sd [min] rr [mm]
24.06.2018 11:00:00 - - - - - - - - - - - - -
24.06.2018 10:00:00 13,9 7,4 17,4 18,0 14,3 3 2 9 5 ENE 20 25 0,0
24.06.2018 09:00:00 13,0 7,9 13,0 18,2 14,3 0 0 5 3 N 20 14 0,0
24.06.2018 08:00:00 9,8 7,9 8,4 18,3 14,3 0 0 9 5 N 20 1 0,0
24.06.2018 07:00:00 7,9 5,7 5,8 18,5 14,3 5 3 9 5 SW 20 10 0,0
24.06.2018 06:00:00 7,7 5,5 5,6 18,6 14,3 8 4 9 5 SW 20 0 0,0
24.06.2018 05:00:00 8,8 5,9 7,2 18,8 14,3 6 3 8 5 WSW 20 0 0,0
24.06.2018 04:00:00 8,7 5,6 6,3 18,9 14,2 5 3 8 4 WSW 20 0 0,0
24.06.2018 03:00:00 9,5 5,9 6,4 19,0 14,2 2 1 8 4 W 20 0 0,0
24.06.2018 02:00:00 10,5 6,8 8,1 19,1 14,3 3 1 6 4 W 20 0 0,0
24.06.2018 01:00:00 11,1 6,2 8,7 19,1 14,2 4 2 9 5 SW 20 0 0,0
24.06.2018 00:00:00 12,3 6,3 8,9 19,2 14,2 0 0 8 4 N 20 0 0,0
23.06.2018 23:00:00 13,2 6,8 10,3 19,2 14,3 3 2 13 7 WNW 20 0 0,0
23.06.2018 22:00:00 14,4 6,5 10,7 19,2 14,2 3 2 12 6 NNW 18 10 0,0
23.06.2018 21:00:00 16,2 6,9 15,4 19,1 14,2 8 4 16 9 NNE 20 36 0,0
23.06.2018 20:00:00 17,7 6,5 17,6 19,0 14,2 9 5 22 12 ENE 20 49 0,0
23.06.2018 19:00:00 19,3 7,1 20,5 18,8 14,2 14 8 23 12 ENE 20 60 0,0
23.06.2018 18:00:00 19,8 6,5 24,0 18,6 14,2 12 7 24 13 E 20 60 0,0
23.06.2018 17:00:00 19,6 8,0 24,3 18,4 14,2 14 8 27 14 ENE 20 60 0,0
23.06.2018 16:00:00 19,3 6,7 24,2 18,2 14,2 11 6 29 15 E 20 60 0,0
23.06.2018 15:00:00 19,0 7,1 24,4 18,1 14,2 15 8 30 16 NE 20 60 0,0
23.06.2018 14:00:00 18,3 6,2 23,9 18,0 14,2 13 7 29 16 ENE 20 60 0,0
23.06.2018 13:00:00 17,3 5,9 23,2 18,0 14,1 16 9 27 15 N 20 60 0,0
23.06.2018 12:00:00 16,5 6,6 21,5 18,1 14,2 12 6 27 14 NE 20 60 0,0
23.06.2018 11:00:00 14,7 6,0 19,0 18,2 14,2 11 6 27 15 ENE 20 60 0,0
23.06.2018 10:00:00 13,6 5,5 17,9 18,3 14,2 15 8 27 15 NE 20 60 0,0
23.06.2018 09:00:00 12,6 5,5 17,1 18,5 14,2 11 6 18 10 NE 20 60 0,0
23.06.2018 08:00:00 10,9 4,1 11,5 18,7 14,1 4 2 10 6 N 20 60 0,0
23.06.2018 07:00:00 9,0 3,8 4,2 18,9 14,2 5 3 10 5 WNW 20 36 0,0
23.06.2018 06:00:00 6,7 3,7 3,9 19,1 14,1 4 2 8 5 W 20 0 0,0
23.06.2018 05:00:00 8,5 3,9 4,5 19,2 14,2 5 3 11 6 NW 20 0 0,0
23.06.2018 04:00:00 7,2 4,3 4,5 19,4 14,2 5 3 10 6 SW 20 0 0,0
23.06.2018 03:00:00 8,0 4,4 5,0 19,6 14,2 10 5 19 10 NNW 20 0 0,0
23.06.2018 02:00:00 8,7 4,9 5,1 19,7 14,1 10 5 18 10 N 20 0 0,0
23.06.2018 01:00:00 10,0 5,2 6,1 19,8 14,1 8 4 19 10 N 20 0 0,0
23.06.2018 00:00:00 10,6 5,4 6,9 19,9 14,1 7 4 21 11 N 20 0 0,0
22.06.2018 23:00:00 12,0 6,1 7,8 20,0 14,1 13 7 21 11 N 20 0 0,0
22.06.2018 22:00:00 12,7 5,6 10,5 20,0 14,1 10 5 30 16 NNE 20 0 0,0
22.06.2018 21:00:00 14,5 5,3 13,6 20,0 14,1 18 10 36 19 NNE 20 58 0,0
22.06.2018 20:00:00 16,2 5,2 18,3 19,9 14,1 21 12 35 19 NNE 20 60 0,0
22.06.2018 19:00:00 17,1 4,7 18,5 19,8 14,1 22 12 38 21 NNE 20 60 0,0
22.06.2018 18:00:00 17,7 3,6 21,8 19,7 14,1 24 13 35 19 NNE 20 60 0,0
22.06.2018 17:00:00 18,2 2,9 22,2 19,5 14,1 22 12 39 21 NNE 20 60 0,0
22.06.2018 16:00:00 18,5 4,6 23,1 19,4 14,1 23 12 37 20 NE 20 60 0,0
22.06.2018 15:00:00 18,3 5,5 22,7 19,3 14,1 16 9 29 16 NE 20 60 0,0
22.06.2018 14:00:00 17,1 4,4 21,9 19,3 14,1 16 9 31 17 ENE 20 60 0,0
22.06.2018 13:00:00 16,7 4,0 22,1 19,3 14,1 15 8 36 20 NNE 20 60 0,0
22.06.2018 12:00:00 16,1 1,4 21,8 19,3 14,1 21 11 35 19 NE 20 60 0,0
22.06.2018 11:00:00 15,7 7,5 20,9 19,4 14,1 14 7 28 15 NNE 20 60 0,0
22.06.2018 10:00:00 14,2 6,8 18,3 19,5 14,1 16 8 25 14 NNE 20 60 0,0
22.06.2018 09:00:00 13,0 6,3 15,8 19,7 14,1 15 8 25 14 NNE 20 60 0,0
22.06.2018 08:00:00 11,9 6,4 12,3 19,7 14,1 13 7 27 15 NNE 20 55 0,0
22.06.2018 07:00:00 11,8 7,5 12,3 19,9 14,1 13 7 24 13 NNE 20 32 0,0
22.06.2018 06:00:00 12,5 8,6 12,5 19,9 14,0 16 9 27 15 NNE 20 0 0,0
22.06.2018 05:00:00 13,8 11,0 13,8 20,1 14,1 14 7 27 15 NNE 20 0 0,0
22.06.2018 04:00:00 14,9 12,0 14,6 20,1 14,1 11 6 24 13 NNE 20 0 0,0
22.06.2018 03:00:00 15,9 12,8 15,9 20,2 14,1 16 8 24 13 NNE 20 0 0,0
22.06.2018 02:00:00 16,9 14,0 16,9 20,2 14,1 12 6 22 12 N 20 0 0,0
22.06.2018 01:00:00 17,6 14,5 16,1 20,3 14,0 8 4 14 8 NNE 20 0 0,0
22.06.2018 00:00:00 18,2 13,9 16,6 20,3 14,1 3 2 24 13 WNW 20 0 0,0
21.06.2018 23:00:00 19,2 14,0 18,6 20,2 14,0 9 5 23 12 NNE 20 0 0,0
21.06.2018 22:00:00 20,1 13,5 19,4 20,2 14,1 12 7 18 10 NNE 20 0 0,0
21.06.2018 21:00:00 21,9 11,3 21,4 20,1 14,1 10 5 21 11 N 20 57 0,0
21.06.2018 20:00:00 23,8 12,1 23,4 19,9 14,0 13 7 26 14 NNE 20 44 0,0
21.06.2018 19:00:00 23,4 12,7 23,6 19,7 14,0 16 8 27 15 N 20 14 0,0
21.06.2018 18:00:00 25,4 14,5 28,1 19,4 14,0 16 9 29 16 N 20 53 0,0
21.06.2018 17:00:00 26,2 15,3 32,1 19,1 14,0 18 10 31 17 N 20 60 0,0
21.06.2018 16:00:00 27,0 14,4 30,7 18,9 14,0 16 9 50 27 NW 20 58 0,0
21.06.2018 15:00:00 26,7 15,7 27,8 18,7 14,0 11 6 27 15 NW 20 47 0,0
21.06.2018 14:00:00 26,5 13,3 32,0 18,6 14,0 11 6 25 13 NW 20 60 0,0
21.06.2018 13:00:00 25,9 12,7 27,7 18,5 14,0 12 6 31 17 NW 20 56 0,0
21.06.2018 12:00:00 25,1 14,2 25,1 18,5 14,0 14 8 34 18 WNW 20 37 0,0
21.06.2018 11:00:00 24,0 17,0 29,6 18,6 14,0 6 4 14 8 NNE 20 56 0,0
21.06.2018 10:00:00 22,5 17,2 27,9 18,6 14,0 3 1 7 4 ENE 20 60 0,0
21.06.2018 09:00:00 19,9 16,3 23,2 18,7 14,0 2 1 6 4 NNE 18 60 0,0
21.06.2018 08:00:00 17,8 16,0 15,6 18,8 14,0 2 1 4 2 NE 10 60 0,0
21.06.2018 07:00:00 14,3 13,7 11,0 19,0 14,0 4 2 19 10 W 12 22 0,0
21.06.2018 06:00:00 13,3 12,8 10,1 19,1 14,0 0 0 4 2 N 13 0 0,0
21.06.2018 05:00:00 13,6 12,8 11,4 19,1 14,0 0 0 5 3 N 6 0 0,0
21.06.2018 04:00:00 14,5 13,9 11,8 19,3 14,0 0 0 5 3 N 9 0 0,0
21.06.2018 03:00:00 15,6 14,8 13,0 19,3 14,0 3 2 6 4 W 20 0 0,0
21.06.2018 02:00:00 16,0 15,2 13,6 19,3 14,0 4 2 8 4 SW 16 0 0,0
21.06.2018 01:00:00 16,6 15,3 14,6 19,4 14,0 3 2 9 5 W 20 0 0,0
21.06.2018 00:00:00 17,0 15,0 14,7 19,4 14,0 5 3 9 5 WSW 20 0 0,0
20.06.2018 23:00:00 17,9 15,7 16,1 19,3 14,0 3 2 8 4 SW 20 0 0,0
20.06.2018 22:00:00 19,1 16,0 17,8 19,2 14,0 0 0 13 7 N 2,2 9 0,0
20.06.2018 21:00:00 20,3 16,5 20,3 19,1 14,0 7 4 15 8 E 20 36 0,0
20.06.2018 20:00:00 21,4 16,1 21,8 18,9 14,0 9 5 31 17 S 20 5 0,0
20.06.2018 19:00:00 25,1 16,5 25,1 18,7 14,0 14 8 29 16 N 20 0 0,0
20.06.2018 18:00:00 26,4 15,4 26,3 18,4 14,0 5 3 11 6 NNW 20 3 0,0
20.06.2018 17:00:00 27,1 15,5 27,3 18,1 14,0 3 1 15 8 E 20 27 0,0
20.06.2018 16:00:00 27,5 14,8 33,1 17,8 14,0 5 3 15 8 ENE 20 60 0,0
20.06.2018 15:00:00 26,7 16,0 32,4 17,6 14,0 5 3 19 10 NNE 20 60 0,0
20.06.2018 14:00:00 25,6 15,6 31,4 17,4 14,0 4 2 14 8 NNE 20 60 0,0
20.06.2018 13:00:00 24,6 16,3 30,4 17,3 14,0 4 2 13 7 E 20 60 0,0
20.06.2018 12:00:00 23,0 15,6 29,8 17,3 14,0 4 2 11 6 ENE 19 60 0,0
20.06.2018 11:00:00 21,0 14,9 26,5 17,3 14,0 4 2 13 7 E 20 60 0,0
20.06.2018 10:00:00 19,4 14,9 25,9 17,4 14,0 6 3 11 6 ESE 20 60 0,0
20.06.2018 09:00:00 18,7 14,8 20,5 17,5 14,0 3 2 5 3 ENE 20 60 0,0
20.06.2018 08:00:00 16,0 13,3 16,0 17,6 14,0 3 1 5 3 E 20 60 0,0
20.06.2018 07:00:00 12,3 11,4 8,1 17,7 14,0 4 2 22 12 WNW 20 37 0,2
20.06.2018 06:00:00 11,4 10,6 8,2 17,8 14,0 2 1 7 4 W 20 0 0,0
20.06.2018 05:00:00 11,4 10,1 9,3 17,9 14,0 0 0 11 6 N 20 0 0,0
20.06.2018 04:00:00 12,6 11,3 11,4 17,9 14,0 7 4 12 6 SW 20 0 0,0
20.06.2018 03:00:00 12,8 11,5 11,4 18,0 14,0 6 4 11 6 SW 20 0 0,0
20.06.2018 02:00:00 13,5 11,9 12,0 18,0 14,0 5 3 9 5 WSW 20 0 0,0
20.06.2018 01:00:00 14,6 12,6 13,2 18,1 14,0 6 4 8 5 WSW 20 0 0,0
20.06.2018 00:00:00 15,0 13,0 13,3 18,0 14,0 5 3 8 5 W 20 0 0,0
19.06.2018 23:00:00 15,6 13,3 14,1 18,0 14,0 5 3 8 5 WSW 20 0 0,0
19.06.2018 22:00:00 18,5 14,0 15,0 17,9 14,0 4 2 8 4 NW 20 0 0,0
19.06.2018 21:00:00 20,4 14,1 19,0 17,7 14,0 6 4 16 8 NE 20 57 0,0
19.06.2018 20:00:00 22,2 14,3 23,8 17,5 14,0 9 5 19 10 ENE 20 60 0,0
19.06.2018 19:00:00 22,9 12,8 23,5 17,3 14,0 13 7 26 14 NE 20 60 0,0
19.06.2018 18:00:00 23,1 12,7 26,8 17,0 14,0 13 7 23 12 ENE 20 60 0,0
19.06.2018 17:00:00 23,2 12,8 27,9 16,8 14,0 10 6 22 12 E 20 60 0,0
19.06.2018 16:00:00 22,9 14,2 28,4 16,6 14,0 9 5 21 11 E 17 60 0,0
19.06.2018 15:00:00 21,7 14,1 28,0 16,4 14,0 5 3 20 11 ENE 20 60 0,0
19.06.2018 14:00:00 20,3 12,8 26,4 16,3 14,0 9 5 22 12 ENE 20 60 0,0
19.06.2018 13:00:00 19,2 12,9 23,2 16,2 14,0 13 7 26 14 NE 19 53 0,0
19.06.2018 12:00:00 17,8 12,3 20,3 16,2 14,0 15 8 25 13 NE 20 37 0,0
19.06.2018 11:00:00 17,0 12,5 18,4 16,3 14,0 15 8 27 15 NE 20 9 0,0
19.06.2018 10:00:00 16,0 12,2 16,6 16,3 14,0 15 8 30 16 ENE 20 0 0,0
19.06.2018 09:00:00 15,2 12,5 16,7 16,4 14,0 10 5 16 9 NE 20 12 0,0
19.06.2018 08:00:00 13,9 11,8 13,5 16,5 14,0 0 0 5 3 N 20 0 0,0
19.06.2018 07:00:00 13,0 11,2 10,5 16,6 14,0 3 1 14 7 W 20 0 0,0
19.06.2018 06:00:00 10,9 10,1 7,7 16,7 14,0 2 1 6 3 E 20 0 0,0
19.06.2018 05:00:00 10,8 9,6 8,8 16,8 14,0 3 1 12 7 W 20 0 0,0
19.06.2018 04:00:00 11,3 10,2 8,1 16,8 14,0 2 1 6 3 WNW 20 0 0,0
19.06.2018 03:00:00 11,4 10,0 9,8 16,9 14,0 4 2 10 6 W 20 0 0,0
19.06.2018 02:00:00 11,8 10,4 8,6 16,9 14,0 7 4 11 6 WNW 20 0 0,0
19.06.2018 01:00:00 11,9 10,5 9,6 16,9 14,0 3 2 8 5 WSW 20 0 0,0
19.06.2018 00:00:00 13,5 11,4 11,2 16,9 14,0 6 3 13 7 NNW 20 0 0,0
18.06.2018 23:00:00 15,0 11,8 14,7 16,9 14,0 8 5 18 10 NNW 20 0 0,0
18.06.2018 22:00:00 15,3 11,9 15,1 16,9 14,0 9 5 23 12 NNW 20 0 0,0
18.06.2018 21:00:00 16,0 11,6 15,9 16,8 14,0 18 10 30 16 NNW 20 0 0,0
18.06.2018 20:00:00 16,8 11,7 17,7 16,7 14,0 16 8 27 15 N 20 2 0,0
18.06.2018 19:00:00 17,1 12,0 18,7 16,7 14,0 18 10 31 17 NNW 20 0 0,0
18.06.2018 18:00:00 17,4 12,3 19,0 16,6 13,9 11 6 20 11 N 20 2 0,0
18.06.2018 17:00:00 17,2 12,3 19,2 16,5 14,0 10 6 25 13 NE 20 0 0,0
18.06.2018 16:00:00 17,3 12,0 20,1 16,5 14,0 14 7 24 13 NW 20 1 0,0
18.06.2018 15:00:00 17,2 11,9 21,9 16,5 14,0 16 9 27 15 N 20 18 0,0
18.06.2018 14:00:00 16,6 11,5 19,3 16,5 14,0 15 8 24 13 N 20 0 0,0
18.06.2018 13:00:00 15,3 11,3 16,1 16,5 14,0 11 6 23 12 NNW 20 0 0,0
18.06.2018 12:00:00 13,9 10,3 15,0 16,6 14,0 12 7 22 12 N 20 0 0,0
18.06.2018 11:00:00 13,7 10,3 14,0 16,6 14,0 13 7 22 12 NNW 20 0 0,0

tt = temperature
td = dewpoint
tt 5cm = temperature 5cm
tt -20cm = temperature -20cm
tt -100cm = temperature -100cm
ff = wind speed
fx = gusts
dd = wind direction
vv = visibility
sd = sunshine duration
rr = precipitation

Next stations